Flugplatz Hildesheim

Für EDVM sind keine METAR/TAF Berichte vorhanden.
Es werden die Flugwettermeldungen vom Flugplatz Hannover in 35 km Entfernung angezeigt.

Bericht für EDDV

vom 26.09. um 23:50 UTC

Wind 7 kt aus 180°

Sichtweite 6000 m

gering bewölkt in 400 ft

aufgebrochene Bewölkung in 700 ft

Temperatur 10.0°C

Taupunkt 9.0°C

Luftfeuchtigkeit 93%

Luftdruck 993 hPa

EDDV 262350Z 18007KT 150V220 6000 FEW004 BKN007 10/09 Q0993

Prognose für EDDV

vom 26.09. um 23:00 UTC

Zwischen 00:00 UTC und 01:00 UTC

Wind 10 kt aus 220°

Sichtweite 10 km oder mehr

aufgebrochene Bewölkung in 700 ft


Zwischen 00:00 UTC und 07:00 UTC zeitweise mit einer Wahrscheinlichkeit von 30%

Sichtweite 4000 m

feuchter Dunst

aufgebrochene Bewölkung in 400 ft


Zwischen 01:00 und 03:00 UTC übergehend zu

Wind 7 kt aus 140°

Sichtweite 10 km oder mehr

aufgebrochene Bewölkung in 700 ft


Zwischen 11:00 und 14:00 UTC übergehend zu

variable Windrichtung mit 3 kt

Sichtweite 10 km oder mehr

aufgebrochene Bewölkung in 700 ft


Zwischen 14:00 UTC und 00:00 UTC zeitweise

Sichtweite 4000 m

Regen

TAF EDDV 262300Z 2700/2724 22010KT 9999 BKN007 PROB30 TEMPO 2700/2707 4000 BR BKN004 BECMG 2701/2703 14007KT BECMG 2711/2714 VRB03KT TEMPO 2714/2724 4000 RA
Impressum